BEL278 DXXX-DGAA
Flight info
| Callsign | BEL278 |
|---|---|
| Flight time | 0h 22m |
| Altitude | 12000 |
| Route | KETAT2S KETAT UL433 EREKA EREKA1B |
| Aircraft | A333/H-SDE3GHIJ2J3J5M1RVWXY/LB2D1 |
Departure
| Time | 2026-05-06 19:13 |
|---|---|
| Airport | Lomé–Tokoin International Airport (DXXX) |
Arrival
| Time | 2026-05-06 19:35 |
|---|---|
| Airport | Kotoka International Airport (DGAA) |
| Time | Latitude | Longitude | Altitude | Speed | Heading |
|---|---|---|---|---|---|
| 2026-05-06 18:55 | 6.16946 | 1.25377 | 82 ft | 0 kts | 309° |
| 2026-05-06 19:06 | 6.16937 | 1.25388 | 81 ft | 2 kts | 309° |
| 2026-05-06 19:06 | 6.16927 | 1.25400 | 81 ft | 2 kts | 309° |
| 2026-05-06 19:06 | 6.16918 | 1.25412 | 81 ft | 2 kts | 317° |
| 2026-05-06 19:07 | 6.16906 | 1.25420 | 81 ft | 2 kts | 335° |
| 2026-05-06 19:07 | 6.16892 | 1.25425 | 81 ft | 2 kts | 348° |
| 2026-05-06 19:07 | 6.16877 | 1.25427 | 81 ft | 2 kts | 3° |
| 2026-05-06 19:07 | 6.16862 | 1.25425 | 81 ft | 2 kts | 18° |
| 2026-05-06 19:08 | 6.16849 | 1.25419 | 81 ft | 2 kts | 32° |
| 2026-05-06 19:08 | 6.16842 | 1.25415 | 81 ft | 1 kts | 40° |
| 2026-05-06 19:08 | 6.16840 | 1.25413 | 81 ft | 0 kts | 40° |
| 2026-05-06 19:09 | 6.16890 | 1.25454 | 81 ft | 20 kts | 38° |
| 2026-05-06 19:10 | 6.17037 | 1.25570 | 83 ft | 29 kts | 39° |
| 2026-05-06 19:10 | 6.17194 | 1.25695 | 83 ft | 29 kts | 39° |
| 2026-05-06 19:10 | 6.17356 | 1.25823 | 80 ft | 30 kts | 38° |
| 2026-05-06 19:10 | 6.17524 | 1.25957 | 75 ft | 31 kts | 38° |
| 2026-05-06 19:11 | 6.17664 | 1.26069 | 76 ft | 17 kts | 39° |
| 2026-05-06 19:11 | 6.17695 | 1.26156 | 75 ft | 14 kts | 116° |
| 2026-05-06 19:11 | 6.17643 | 1.26221 | 73 ft | 9 kts | 139° |
| 2026-05-06 19:11 | 6.17585 | 1.26220 | 72 ft | 9 kts | 211° |
| 2026-05-06 19:12 | 6.17532 | 1.26181 | 72 ft | 10 kts | 218° |
| 2026-05-06 19:12 | 6.17336 | 1.26026 | 70 ft | 73 kts | 218° |
| 2026-05-06 19:12 | 6.16738 | 1.25550 | 82 ft | 141 kts | 218° |
| 2026-05-06 19:12 | 6.15831 | 1.24835 | 307 ft | 178 kts | 218° |
| 2026-05-06 19:13 | 6.14898 | 1.24145 | 1279 ft | 164 kts | 207° |
| 2026-05-06 19:13 | 6.13904 | 1.23746 | 2108 ft | 151 kts | 198° |
| 2026-05-06 19:13 | 6.12911 | 1.23323 | 2468 ft | 162 kts | 205° |
| 2026-05-06 19:13 | 6.11841 | 1.22827 | 2846 ft | 174 kts | 205° |
| 2026-05-06 19:14 | 6.10712 | 1.22270 | 3184 ft | 190 kts | 207° |
| 2026-05-06 19:14 | 6.09476 | 1.21542 | 3462 ft | 217 kts | 219° |
| 2026-05-06 19:14 | 6.08521 | 1.20293 | 3844 ft | 242 kts | 242° |
| 2026-05-06 19:14 | 6.07968 | 1.18617 | 4349 ft | 263 kts | 258° |
| 2026-05-06 19:15 | 6.07770 | 1.16748 | 4919 ft | 278 kts | 262° |
| 2026-05-06 19:15 | 6.07569 | 1.14806 | 5708 ft | 283 kts | 266° |
| 2026-05-06 19:15 | 6.07442 | 1.12820 | 6499 ft | 288 kts | 267° |
| 2026-05-06 19:15 | 6.07330 | 1.10804 | 7191 ft | 296 kts | 267° |
| 2026-05-06 19:16 | 6.07217 | 1.08714 | 7893 ft | 304 kts | 268° |
| 2026-05-06 19:16 | 6.07101 | 1.06578 | 8560 ft | 311 kts | 268° |
| 2026-05-06 19:16 | 6.06986 | 1.04409 | 9280 ft | 316 kts | 268° |
| 2026-05-06 19:16 | 6.06867 | 1.02195 | 9960 ft | 322 kts | 268° |
| 2026-05-06 19:17 | 6.06684 | 0.99939 | 10441 ft | 335 kts | 259° |
| 2026-05-06 19:17 | 6.05902 | 0.97676 | 10752 ft | 353 kts | 248° |
| 2026-05-06 19:17 | 6.04993 | 0.95300 | 11147 ft | 367 kts | 249° |
| 2026-05-06 19:17 | 6.04098 | 0.92915 | 11852 ft | 370 kts | 249° |
| 2026-05-06 19:18 | 6.03194 | 0.90498 | 11814 ft | 371 kts | 249° |
| 2026-05-06 19:18 | 6.02292 | 0.88085 | 11823 ft | 364 kts | 249° |
| 2026-05-06 19:18 | 6.01405 | 0.85717 | 11862 ft | 365 kts | 249° |
| 2026-05-06 19:18 | 6.00516 | 0.83337 | 11836 ft | 362 kts | 249° |
| 2026-05-06 19:19 | 5.99637 | 0.80989 | 11845 ft | 364 kts | 249° |
| 2026-05-06 19:19 | 5.98750 | 0.78593 | 11842 ft | 362 kts | 251° |
| 2026-05-06 19:19 | 5.98227 | 0.76110 | 11844 ft | 363 kts | 263° |
| 2026-05-06 19:19 | 5.97867 | 0.73623 | 11848 ft | 363 kts | 262° |
| 2026-05-06 19:20 | 5.97478 | 0.71126 | 11840 ft | 361 kts | 261° |
| 2026-05-06 19:20 | 5.97079 | 0.68625 | 11843 ft | 363 kts | 261° |
| 2026-05-06 19:20 | 5.96675 | 0.66120 | 11844 ft | 362 kts | 261° |
| 2026-05-06 19:20 | 5.96269 | 0.63612 | 11840 ft | 362 kts | 261° |
| 2026-05-06 19:21 | 5.95866 | 0.61132 | 11843 ft | 363 kts | 261° |
| 2026-05-06 19:21 | 5.95459 | 0.58628 | 11845 ft | 364 kts | 261° |
| 2026-05-06 19:21 | 5.95056 | 0.56146 | 11846 ft | 362 kts | 261° |
| 2026-05-06 19:21 | 5.94646 | 0.53634 | 11846 ft | 361 kts | 261° |
| 2026-05-06 19:22 | 5.94239 | 0.51129 | 11813 ft | 363 kts | 261° |
| 2026-05-06 19:22 | 5.93832 | 0.48632 | 11494 ft | 366 kts | 261° |
| 2026-05-06 19:22 | 5.93424 | 0.46124 | 11253 ft | 362 kts | 261° |
| 2026-05-06 19:22 | 5.93018 | 0.43633 | 10869 ft | 364 kts | 261° |
| 2026-05-06 19:23 | 5.92606 | 0.41103 | 10467 ft | 360 kts | 261° |
| 2026-05-06 19:23 | 5.92207 | 0.38661 | 10130 ft | 354 kts | 261° |
| 2026-05-06 19:23 | 5.91817 | 0.36266 | 10078 ft | 340 kts | 262° |
| 2026-05-06 19:23 | 5.91444 | 0.33979 | 9973 ft | 329 kts | 261° |
| 2026-05-06 19:24 | 5.91080 | 0.31744 | 9866 ft | 318 kts | 261° |
| 2026-05-06 19:24 | 5.90725 | 0.29568 | 9620 ft | 314 kts | 261° |
| 2026-05-06 19:24 | 5.90373 | 0.27414 | 9320 ft | 312 kts | 261° |
| 2026-05-06 19:24 | 5.90022 | 0.25262 | 9035 ft | 309 kts | 262° |
| 2026-05-06 19:25 | 5.89680 | 0.23162 | 8759 ft | 306 kts | 261° |
| 2026-05-06 19:25 | 5.89336 | 0.21058 | 8347 ft | 305 kts | 261° |
| 2026-05-06 19:25 | 5.88999 | 0.18990 | 7960 ft | 293 kts | 261° |
| 2026-05-06 19:25 | 5.88672 | 0.16988 | 7673 ft | 291 kts | 261° |
| 2026-05-06 19:26 | 5.88345 | 0.14988 | 7310 ft | 292 kts | 261° |
| 2026-05-06 19:26 | 5.88014 | 0.12960 | 6945 ft | 293 kts | 261° |
| 2026-05-06 19:26 | 5.87684 | 0.10939 | 6580 ft | 294 kts | 261° |
| 2026-05-06 19:26 | 5.87357 | 0.08938 | 6219 ft | 293 kts | 261° |
| 2026-05-06 19:27 | 5.87023 | 0.06900 | 5844 ft | 293 kts | 261° |
| 2026-05-06 19:27 | 5.86694 | 0.04880 | 5513 ft | 291 kts | 261° |
| 2026-05-06 19:27 | 5.86373 | 0.02919 | 5295 ft | 285 kts | 260° |
| 2026-05-06 19:27 | 5.86056 | 0.00989 | 5050 ft | 273 kts | 260° |
| 2026-05-06 19:28 | 5.85762 | -0.00810 | 5025 ft | 252 kts | 260° |
| 2026-05-06 19:28 | 5.85483 | -0.02514 | 4965 ft | 236 kts | 259° |
| 2026-05-06 19:28 | 5.85226 | -0.04084 | 4937 ft | 223 kts | 260° |
| 2026-05-06 19:28 | 5.84947 | -0.05618 | 4897 ft | 228 kts | 252° |
| 2026-05-06 19:29 | 5.84205 | -0.07011 | 4751 ft | 230 kts | 226° |
| 2026-05-06 19:29 | 5.82822 | -0.07791 | 4506 ft | 229 kts | 197° |
| 2026-05-06 19:29 | 5.81302 | -0.08307 | 4231 ft | 231 kts | 200° |
| 2026-05-06 19:29 | 5.79805 | -0.08877 | 3888 ft | 225 kts | 201° |
| 2026-05-06 19:30 | 5.78373 | -0.09441 | 3609 ft | 219 kts | 202° |
| 2026-05-06 19:30 | 5.76966 | -0.10007 | 3330 ft | 211 kts | 202° |
| 2026-05-06 19:30 | 5.75634 | -0.10547 | 3046 ft | 198 kts | 203° |
| 2026-05-06 19:30 | 5.74388 | -0.11056 | 2843 ft | 191 kts | 202° |
| 2026-05-06 19:31 | 5.73168 | -0.11554 | 2584 ft | 188 kts | 203° |
| 2026-05-06 19:31 | 5.71952 | -0.12052 | 2351 ft | 184 kts | 203° |
| 2026-05-06 19:31 | 5.69817 | -0.12926 | 1932 ft | 146 kts | 203° |
| 2026-05-06 19:32 | 5.68919 | -0.13294 | 1710 ft | 134 kts | 202° |
| 2026-05-06 19:32 | 5.68057 | -0.13634 | 1493 ft | 131 kts | 200° |
| 2026-05-06 19:32 | 5.67212 | -0.13989 | 1342 ft | 132 kts | 201° |
| 2026-05-06 19:32 | 5.66348 | -0.14346 | 1185 ft | 133 kts | 199° |
| 2026-05-06 19:33 | 5.65478 | -0.14683 | 1037 ft | 136 kts | 202° |
| 2026-05-06 19:33 | 5.64595 | -0.15048 | 867 ft | 136 kts | 201° |
| 2026-05-06 19:33 | 5.63710 | -0.15414 | 673 ft | 136 kts | 202° |
| 2026-05-06 19:33 | 5.62825 | -0.15780 | 499 ft | 138 kts | 202° |
| 2026-05-06 19:34 | 5.61907 | -0.16146 | 318 ft | 142 kts | 201° |
| 2026-05-06 19:34 | 5.61027 | -0.16511 | 227 ft | 124 kts | 202° |
| 2026-05-06 19:34 | 5.60398 | -0.16768 | 218 ft | 69 kts | 202° |
| 2026-05-06 19:34 | 5.59962 | -0.16977 | 209 ft | 65 kts | 221° |
| 2026-05-06 19:35 | 5.59863 | -0.17181 | 221 ft | 20 kts | 347° |
| 2026-05-06 19:35 | 5.59962 | -0.17236 | 220 ft | 7 kts | 300° |